ADDS METAR Data INFO
IDs: Format: Raw Decoded Include TAF

Data at: 0731 UTC 18 Oct 2017

KHOT 180653Z AUTO 00000KT 10SM CLR 08/06 A3021 RMK AO2 SLP227 T00830061
KHOT 180553Z AUTO 00000KT 10SM CLR 09/06 A3021 RMK AO2 SLP227 T00890061 10200 20083 402390039 58002
KHOT 180453Z AUTO 00000KT 10SM CLR 10/07 A3022 RMK AO2 SLP231 T01000072
KHOT 180353Z AUTO 00000KT 10SM CLR 11/07 A3022 RMK AO2 SLP231 T01110067
KHOT 180253Z AUTO 06003KT 10SM CLR 13/06 A3021 RMK AO2 SLP229 T01280061 51010
KHOT 180153Z AUTO 00000KT 10SM CLR 13/06 A3020 RMK AO2 SLP226 T01280056
KHOT 180053Z AUTO 07005KT 10SM CLR 14/05 A3020 RMK AO2 SLP224 T01390050
KHOT 172353Z AUTO 11004KT 10SM CLR 20/04 A3018 RMK AO2 SLP218 T02000039 10239 20194 56009
KHOT 172253Z AUTO 14006KT 10SM CLR 22/03 A3018 RMK AO2 SLP218 T02220033
KHOT 172153Z AUTO 00000KT 10SM CLR 23/01 A3019 RMK AO2 SLP221 T02280011
KHOT 172053Z AUTO VRB03KT 10SM CLR 23/02 A3021 RMK AO2 SLP226 T02330017 56033
KHOT 171953Z AUTO 24007KT 10SM CLR 22/02 A3023 RMK AO2 SLP234 T02220022
KHOT 171853Z AUTO VRB03KT 10SM CLR 22/03 A3027 RMK AO2 SLP247 T02170033
KHOT 171753Z AUTO VRB04KT 10SM CLR 19/03 A3031 RMK AO2 SLP261 6//// T01940033 10200 20039 58018
KHOT 171653Z AUTO VRB04KT 10SM CLR 18/05 A3034 RMK AO2 SLP271 T01830050 PWINO $
KHOT 171553Z AUTO VRB04KT CLR 17/05 A3036 RMK AO2 SLP278 T01670050 $
KHOT 171453Z AUTO 05003KT 10SM CLR 13/08 A3036 RMK AO2 SLP280 60000 T01280083 51012 $
KHOT 171356Z AUTO 00000KT 4SM BR SCT001 08/08 A3036 RMK AO2 T00780078 $
KHOT 171353Z AUTO 00000KT 1 1/4SM BR SCT001 08/07 A3036 RMK AO2 SLP280 T00780072 $
KHOT 171344Z AUTO 00000KT 3/4SM BR VV001 08/07 A3036 RMK AO2 VIS 1/2V5 T00780072 $
KHOT 171339Z AUTO 00000KT 1 3/4SM BR SCT001 07/07 A3035 RMK AO2 T00720072 $
KHOT 171337Z AUTO 00000KT 3SM BR SCT001 08/07 A3035 RMK AO2 T00780072 $
KHOT 171328Z AUTO 00000KT 10SM BKN001 07/07 A3035 RMK AO2 T00720067 $
KHOT 171321Z AUTO 00000KT 1 1/2SM BR BKN001 07/07 A3035 RMK AO2 T00670067 $
KHOT 171253Z AUTO 00000KT 1/4SM FG VV001 06/06 A3034 RMK AO2 RAB02E12 SLP273 P0000 T00560056 $
KHOT 171221Z AUTO 00000KT 1/4SM FG VV001 05/05 A3034 RMK AO2 RAB02E12 P0000 T00500050 $
KHOT 171218Z AUTO 00000KT 1SM BR VV001 05/05 A3034 RMK AO2 RAB02E12 P0000 T00500050 $
KHOT 171202Z AUTO 00000KT 1/4SM -RA FG VV001 05/04 A3033 RMK AO2 RAB02 P0000 T00500044 $
KHOT 171159Z AUTO 00000KT 1SM BR VV001 05/04 A3033 RMK AO2 T00500044 $
KHOT 171153Z AUTO 00000KT 10SM FEW001 04/03 A3033 RMK AO2 SLP269 T00390033 10083 20039 50004 $
KHOT 171053Z AUTO 00000KT 10SM CLR 06/06 A3033 RMK AO2 SLP269 T00610056 $
KHOT 171013Z AUTO 00000KT 10SM SCT001 06/06 A3033 RMK AO2 T00610056 $
KHOT 170953Z AUTO 00000KT 10SM OVC001 07/06 A3032 RMK AO2 SLP264 T00670061 $
KHOT 170927Z AUTO 00000KT 10SM BKN001 07/06 A3031 RMK AO2 T00670061 $
KHOT 170918Z AUTO 00000KT 10SM SCT001 07/06 A3031 RMK AO2 T00670061 $
KHOT 170853Z AUTO 00000KT 10SM CLR 06/06 A3032 RMK AO2 SLP264 T00610056 50003 $
KHOT 170753Z AUTO 00000KT 10SM CLR 07/06 A3032 RMK AO2 SLP264 T00670056 $
KHOT 170653Z AUTO 00000KT 10SM CLR 08/07 A3031 RMK AO2 SLP261 T00780067 $
KHOT 170553Z AUTO 00000KT 10SM CLR 08/07 A3031 RMK AO2 SLP260 T00830067 10178 20083 402170083 58000 $
KHOT 170453Z AUTO 00000KT 10SM CLR 09/06 A3031 RMK AO2 SLP263 T00940061 $
KHOT 170353Z AUTO 00000KT 10SM CLR 10/07 A3032 RMK AO2 SLP265 T01000067 $
KHOT 170253Z AUTO 00000KT 10SM CLR 11/06 A3031 RMK AO2 SLP261 T01110061 53005 $
KHOT 170153Z AUTO 00000KT 10SM CLR 13/06 A3030 RMK AO2 SLP258 T01280056 $
KHOT 170053Z AUTO 03003KT 10SM CLR 14/06 A3029 RMK AO2 SLP257 T01390056 $
KHOT 162353Z AUTO 36003KT 10SM CLR 18/04 A3029 RMK AO2 SLP254 T01780044 10217 20172 55002 $
KHOT 162253Z AUTO 06008KT 10SM CLR 20/04 A3029 RMK AO2 SLP254 T02000039 $
KHOT 162153Z AUTO 06009G14KT 10SM CLR 21/04 A3029 RMK AO2 SLP253 T02110039 $
KHOT 162053Z AUTO 10SM CLR 21/04 A3030 RMK AO2 SLP256 T02110044 56028 $
KHOT 161953Z AUTO 10SM CLR 21/04 A3031 RMK AO2 SLP262 T02060044 $